sensor_id;sensor_type;location;lat;lon;timestamp;temperature;humidity
9998;DHT22;5038;53.064;8.624;2024-02-26T00:00:15;4.80;99.90
9998;DHT22;5038;53.064;8.624;2024-02-26T00:02:45;4.80;99.90
9998;DHT22;5038;53.064;8.624;2024-02-26T00:05:14;4.70;99.90
9998;DHT22;5038;53.064;8.624;2024-02-26T00:07:42;4.70;99.90
9998;DHT22;5038;53.064;8.624;2024-02-26T00:10:10;4.70;99.90
9998;DHT22;5038;53.064;8.624;2024-02-26T00:12:39;4.70;99.90
9998;DHT22;5038;53.064;8.624;2024-02-26T00:15:08;4.60;99.90
9998;DHT22;5038;53.064;8.624;2024-02-26T00:17:37;4.60;99.90
9998;DHT22;5038;53.064;8.624;2024-02-26T00:20:09;4.50;99.90
9998;DHT22;5038;53.064;8.624;2024-02-26T00:22:38;4.50;99.90
9998;DHT22;5038;53.064;8.624;2024-02-26T00:25:06;4.50;99.90
9998;DHT22;5038;53.064;8.624;2024-02-26T00:27:35;4.40;99.90
9998;DHT22;5038;53.064;8.624;2024-02-26T00:30:04;4.40;99.90
9998;DHT22;5038;53.064;8.624;2024-02-26T00:32:32;4.30;99.90
9998;DHT22;5038;53.064;8.624;2024-02-26T00:35:00;4.30;99.90
9998;DHT22;5038;53.064;8.624;2024-02-26T00:37:31;4.30;99.90
9998;DHT22;5038;53.064;8.624;2024-02-26T00:40:00;4.20;99.90
9998;DHT22;5038;53.064;8.624;2024-02-26T00:42:28;4.20;99.90
9998;DHT22;5038;53.064;8.624;2024-02-26T00:44:57;4.20;99.90
9998;DHT22;5038;53.064;8.624;2024-02-26T00:47:25;4.10;99.90
9998;DHT22;5038;53.064;8.624;2024-02-26T00:49:54;4.10;99.90
9998;DHT22;5038;53.064;8.624;2024-02-26T00:52:22;4.10;99.90
9998;DHT22;5038;53.064;8.624;2024-02-26T00:54:51;4.00;99.90
9998;DHT22;5038;53.064;8.624;2024-02-26T00:57:19;4.00;99.90
9998;DHT22;5038;53.064;8.624;2024-02-26T00:59:48;4.00;99.90
9998;DHT22;5038;53.064;8.624;2024-02-26T01:02:17;4.00;99.90
9998;DHT22;5038;53.064;8.624;2024-02-26T01:04:46;3.90;99.90
9998;DHT22;5038;53.064;8.624;2024-02-26T01:07:14;3.90;99.90
9998;DHT22;5038;53.064;8.624;2024-02-26T01:09:42;3.90;99.90
9998;DHT22;5038;53.064;8.624;2024-02-26T01:12:12;3.80;99.90
9998;DHT22;5038;53.064;8.624;2024-02-26T01:14:41;3.80;99.90
9998;DHT22;5038;53.064;8.624;2024-02-26T01:17:09;3.70;99.90
9998;DHT22;5038;53.064;8.624;2024-02-26T01:19:37;3.80;99.90
9998;DHT22;5038;53.064;8.624;2024-02-26T01:22:05;3.70;99.90
9998;DHT22;5038;53.064;8.624;2024-02-26T01:24:34;3.70;99.90
9998;DHT22;5038;53.064;8.624;2024-02-26T01:27:02;3.70;99.90
9998;DHT22;5038;53.064;8.624;2024-02-26T01:29:32;3.70;99.90
9998;DHT22;5038;53.064;8.624;2024-02-26T01:32:00;3.60;99.90
9998;DHT22;5038;53.064;8.624;2024-02-26T01:34:28;3.60;99.90
9998;DHT22;5038;53.064;8.624;2024-02-26T01:36:56;3.60;99.90
9998;DHT22;5038;53.064;8.624;2024-02-26T01:39:25;3.60;99.90
9998;DHT22;5038;53.064;8.624;2024-02-26T01:41:54;3.50;99.90
9998;DHT22;5038;53.064;8.624;2024-02-26T01:44:23;3.50;99.90
9998;DHT22;5038;53.064;8.624;2024-02-26T01:46:52;3.50;99.90
9998;DHT22;5038;53.064;8.624;2024-02-26T01:49:21;3.50;99.90
9998;DHT22;5038;53.064;8.624;2024-02-26T01:51:49;3.50;99.90
9998;DHT22;5038;53.064;8.624;2024-02-26T01:54:18;3.50;99.90
9998;DHT22;5038;53.064;8.624;2024-02-26T01:56:46;3.40;99.90
9998;DHT22;5038;53.064;8.624;2024-02-26T01:59:15;3.40;99.90
9998;DHT22;5038;53.064;8.624;2024-02-26T02:01:45;3.40;99.90
9998;DHT22;5038;53.064;8.624;2024-02-26T02:04:17;3.40;99.90
9998;DHT22;5038;53.064;8.624;2024-02-26T02:06:45;3.30;99.90
9998;DHT22;5038;53.064;8.624;2024-02-26T02:09:14;3.40;99.90
9998;DHT22;5038;53.064;8.624;2024-02-26T02:11:42;3.30;99.90
9998;DHT22;5038;53.064;8.624;2024-02-26T02:14:11;3.30;99.90
9998;DHT22;5038;53.064;8.624;2024-02-26T02:16:39;3.30;99.90
9998;DHT22;5038;53.064;8.624;2024-02-26T02:19:08;3.30;99.90
9998;DHT22;5038;53.064;8.624;2024-02-26T02:21:37;3.20;99.90
9998;DHT22;5038;53.064;8.624;2024-02-26T02:24:06;3.20;99.90
9998;DHT22;5038;53.064;8.624;2024-02-26T02:26:34;3.20;99.90
9998;DHT22;5038;53.064;8.624;2024-02-26T02:29:02;3.20;99.90
9998;DHT22;5038;53.064;8.624;2024-02-26T02:31:31;3.10;99.90
9998;DHT22;5038;53.064;8.624;2024-02-26T02:33:59;3.10;99.90
9998;DHT22;5038;53.064;8.624;2024-02-26T02:36:29;3.10;99.90
9998;DHT22;5038;53.064;8.624;2024-02-26T02:38:58;3.10;99.90
9998;DHT22;5038;53.064;8.624;2024-02-26T02:41:27;3.10;99.90
9998;DHT22;5038;53.064;8.624;2024-02-26T02:43:56;3.00;99.90
9998;DHT22;5038;53.064;8.624;2024-02-26T02:46:25;3.10;99.90
9998;DHT22;5038;53.064;8.624;2024-02-26T02:48:53;3.00;99.90
9998;DHT22;5038;53.064;8.624;2024-02-26T02:51:21;3.00;99.90
9998;DHT22;5038;53.064;8.624;2024-02-26T02:53:50;3.00;99.90
9998;DHT22;5038;53.064;8.624;2024-02-26T02:56:19;3.00;99.90
9998;DHT22;5038;53.064;8.624;2024-02-26T02:58:47;3.00;99.90
9998;DHT22;5038;53.064;8.624;2024-02-26T03:01:16;3.00;99.90
9998;DHT22;5038;53.064;8.624;2024-02-26T03:03:44;2.90;99.90
9998;DHT22;5038;53.064;8.624;2024-02-26T03:06:12;2.90;99.90
9998;DHT22;5038;53.064;8.624;2024-02-26T03:08:40;2.90;99.90
9998;DHT22;5038;53.064;8.624;2024-02-26T03:11:13;2.90;99.90
9998;DHT22;5038;53.064;8.624;2024-02-26T03:13:43;2.90;99.90
9998;DHT22;5038;53.064;8.624;2024-02-26T03:16:12;2.80;99.90
9998;DHT22;5038;53.064;8.624;2024-02-26T03:18:40;2.80;99.90
9998;DHT22;5038;53.064;8.624;2024-02-26T03:21:09;2.80;99.90
9998;DHT22;5038;53.064;8.624;2024-02-26T03:23:37;2.80;99.90
9998;DHT22;5038;53.064;8.624;2024-02-26T03:26:05;2.80;99.90
9998;DHT22;5038;53.064;8.624;2024-02-26T03:28:35;2.80;99.90
9998;DHT22;5038;53.064;8.624;2024-02-26T03:31:05;2.80;99.90
9998;DHT22;5038;53.064;8.624;2024-02-26T03:33:33;2.80;99.90
9998;DHT22;5038;53.064;8.624;2024-02-26T03:36:02;2.80;99.90
9998;DHT22;5038;53.064;8.624;2024-02-26T03:38:31;2.80;99.90
9998;DHT22;5038;53.064;8.624;2024-02-26T03:40:59;2.80;99.90
9998;DHT22;5038;53.064;8.624;2024-02-26T03:43:27;2.80;99.90
9998;DHT22;5038;53.064;8.624;2024-02-26T03:45:55;2.80;99.90
9998;DHT22;5038;53.064;8.624;2024-02-26T03:48:25;2.80;99.90
9998;DHT22;5038;53.064;8.624;2024-02-26T03:50:54;2.80;99.90
9998;DHT22;5038;53.064;8.624;2024-02-26T03:53:22;2.80;99.90
9998;DHT22;5038;53.064;8.624;2024-02-26T03:55:50;2.90;99.90
9998;DHT22;5038;53.064;8.624;2024-02-26T03:58:19;2.80;99.90
9998;DHT22;5038;53.064;8.624;2024-02-26T04:00:47;2.80;99.90
9998;DHT22;5038;53.064;8.624;2024-02-26T04:03:16;2.90;99.90
9998;DHT22;5038;53.064;8.624;2024-02-26T04:05:45;2.80;99.90
9998;DHT22;5038;53.064;8.624;2024-02-26T04:08:14;2.80;99.90
9998;DHT22;5038;53.064;8.624;2024-02-26T04:10:42;2.80;99.90
9998;DHT22;5038;53.064;8.624;2024-02-26T04:13:10;2.80;99.90
9998;DHT22;5038;53.064;8.624;2024-02-26T04:15:39;2.80;99.90
9998;DHT22;5038;53.064;8.624;2024-02-26T04:18:07;2.80;99.90
9998;DHT22;5038;53.064;8.624;2024-02-26T04:20:36;2.80;99.90
9998;DHT22;5038;53.064;8.624;2024-02-26T04:23:06;2.80;99.90
9998;DHT22;5038;53.064;8.624;2024-02-26T04:25:34;2.80;99.90
9998;DHT22;5038;53.064;8.624;2024-02-26T04:28:02;2.80;99.90
9998;DHT22;5038;53.064;8.624;2024-02-26T04:30:31;2.80;99.90
9998;DHT22;5038;53.064;8.624;2024-02-26T04:32:59;2.80;99.90
9998;DHT22;5038;53.064;8.624;2024-02-26T04:35:27;2.80;99.90
9998;DHT22;5038;53.064;8.624;2024-02-26T04:37:56;2.80;99.90
9998;DHT22;5038;53.064;8.624;2024-02-26T04:40:26;2.80;99.90
9998;DHT22;5038;53.064;8.624;2024-02-26T04:42:54;2.80;99.90
9998;DHT22;5038;53.064;8.624;2024-02-26T04:45:22;2.80;99.90
9998;DHT22;5038;53.064;8.624;2024-02-26T04:47:50;2.80;99.90
9998;DHT22;5038;53.064;8.624;2024-02-26T04:50:19;2.80;99.90
9998;DHT22;5038;53.064;8.624;2024-02-26T04:52:47;2.80;99.90
9998;DHT22;5038;53.064;8.624;2024-02-26T04:55:15;2.80;99.90
9998;DHT22;5038;53.064;8.624;2024-02-26T04:57:44;2.80;99.90
9998;DHT22;5038;53.064;8.624;2024-02-26T05:00:14;2.80;99.90
9998;DHT22;5038;53.064;8.624;2024-02-26T05:02:42;2.80;99.90
9998;DHT22;5038;53.064;8.624;2024-02-26T05:05:10;2.80;99.90
9998;DHT22;5038;53.064;8.624;2024-02-26T05:07:40;2.80;99.90
9998;DHT22;5038;53.064;8.624;2024-02-26T05:10:09;2.80;99.90
9998;DHT22;5038;53.064;8.624;2024-02-26T05:12:38;2.80;99.90
9998;DHT22;5038;53.064;8.624;2024-02-26T05:15:09;2.80;99.90
9998;DHT22;5038;53.064;8.624;2024-02-26T05:17:38;2.80;99.90
9998;DHT22;5038;53.064;8.624;2024-02-26T05:20:07;2.80;99.90
9998;DHT22;5038;53.064;8.624;2024-02-26T05:22:37;2.80;99.90
9998;DHT22;5038;53.064;8.624;2024-02-26T05:25:05;2.80;99.90
9998;DHT22;5038;53.064;8.624;2024-02-26T05:27:34;2.80;99.90
9998;DHT22;5038;53.064;8.624;2024-02-26T05:30:02;2.80;99.90
9998;DHT22;5038;53.064;8.624;2024-02-26T05:32:32;2.80;99.90
9998;DHT22;5038;53.064;8.624;2024-02-26T05:35:01;2.80;99.90
9998;DHT22;5038;53.064;8.624;2024-02-26T05:37:30;2.80;99.90
9998;DHT22;5038;53.064;8.624;2024-02-26T05:39:59;2.80;99.90
9998;DHT22;5038;53.064;8.624;2024-02-26T05:42:27;2.80;99.90
9998;DHT22;5038;53.064;8.624;2024-02-26T05:44:55;2.80;99.90
9998;DHT22;5038;53.064;8.624;2024-02-26T05:47:23;2.80;99.90
9998;DHT22;5038;53.064;8.624;2024-02-26T05:49:53;2.80;99.90
9998;DHT22;5038;53.064;8.624;2024-02-26T05:52:22;2.80;99.90
9998;DHT22;5038;53.064;8.624;2024-02-26T05:54:52;2.80;99.90
9998;DHT22;5038;53.064;8.624;2024-02-26T05:57:21;2.80;99.90
9998;DHT22;5038;53.064;8.624;2024-02-26T05:59:49;2.80;99.90
9998;DHT22;5038;53.064;8.624;2024-02-26T06:02:18;2.80;99.90
9998;DHT22;5038;53.064;8.624;2024-02-26T06:04:46;2.80;99.90
9998;DHT22;5038;53.064;8.624;2024-02-26T06:07:16;2.80;99.90
9998;DHT22;5038;53.064;8.624;2024-02-26T06:09:44;2.80;99.90
9998;DHT22;5038;53.064;8.624;2024-02-26T06:12:13;2.80;99.90
9998;DHT22;5038;53.064;8.624;2024-02-26T06:14:42;2.80;99.90
9998;DHT22;5038;53.064;8.624;2024-02-26T06:17:10;2.80;99.90
9998;DHT22;5038;53.064;8.624;2024-02-26T06:19:38;2.80;99.90
9998;DHT22;5038;53.064;8.624;2024-02-26T06:22:07;2.80;99.90
9998;DHT22;5038;53.064;8.624;2024-02-26T06:24:37;2.80;99.90
9998;DHT22;5038;53.064;8.624;2024-02-26T06:27:06;2.90;99.90
9998;DHT22;5038;53.064;8.624;2024-02-26T06:29:35;2.90;99.90
9998;DHT22;5038;53.064;8.624;2024-02-26T06:32:04;2.90;99.90
9998;DHT22;5038;53.064;8.624;2024-02-26T06:34:33;2.90;99.90
9998;DHT22;5038;53.064;8.624;2024-02-26T06:37:01;3.00;99.90
9998;DHT22;5038;53.064;8.624;2024-02-26T06:39:30;2.90;99.90
9998;DHT22;5038;53.064;8.624;2024-02-26T06:42:03;3.00;99.90
9998;DHT22;5038;53.064;8.624;2024-02-26T06:44:31;3.00;99.90
9998;DHT22;5038;53.064;8.624;2024-02-26T06:46:59;3.00;99.90
9998;DHT22;5038;53.064;8.624;2024-02-26T06:49:28;3.00;99.90
9998;DHT22;5038;53.064;8.624;2024-02-26T06:51:57;3.10;99.90
9998;DHT22;5038;53.064;8.624;2024-02-26T06:54:25;3.10;99.90
9998;DHT22;5038;53.064;8.624;2024-02-26T06:56:54;3.10;99.90
9998;DHT22;5038;53.064;8.624;2024-02-26T06:59:24;3.10;99.90
9998;DHT22;5038;53.064;8.624;2024-02-26T07:01:53;3.10;99.90
9998;DHT22;5038;53.064;8.624;2024-02-26T07:04:26;3.10;99.90
9998;DHT22;5038;53.064;8.624;2024-02-26T07:06:54;3.10;99.90
9998;DHT22;5038;53.064;8.624;2024-02-26T07:09:28;3.20;99.90
9998;DHT22;5038;53.064;8.624;2024-02-26T07:11:56;3.20;99.90
9998;DHT22;5038;53.064;8.624;2024-02-26T07:14:29;3.20;99.90
9998;DHT22;5038;53.064;8.624;2024-02-26T07:16:57;3.30;99.90
9998;DHT22;5038;53.064;8.624;2024-02-26T07:19:26;3.30;99.90
9998;DHT22;5038;53.064;8.624;2024-02-26T07:21:54;3.30;99.90
9998;DHT22;5038;53.064;8.624;2024-02-26T07:24:23;3.30;99.90
9998;DHT22;5038;53.064;8.624;2024-02-26T07:26:51;3.30;99.90
9998;DHT22;5038;53.064;8.624;2024-02-26T07:29:21;3.30;99.90
9998;DHT22;5038;53.064;8.624;2024-02-26T07:31:51;3.30;99.90
9998;DHT22;5038;53.064;8.624;2024-02-26T07:34:19;3.30;99.90
9998;DHT22;5038;53.064;8.624;2024-02-26T07:36:57;3.40;99.90
9998;DHT22;5038;53.064;8.624;2024-02-26T07:39:25;3.40;99.90
9998;DHT22;5038;53.064;8.624;2024-02-26T07:41:56;3.40;99.90
9998;DHT22;5038;53.064;8.624;2024-02-26T07:44:25;3.40;99.90
9998;DHT22;5038;53.064;8.624;2024-02-26T07:46:54;3.40;99.90
9998;DHT22;5038;53.064;8.624;2024-02-26T07:49:25;3.40;99.90
9998;DHT22;5038;53.064;8.624;2024-02-26T07:51:54;3.40;99.90
9998;DHT22;5038;53.064;8.624;2024-02-26T07:54:25;3.50;99.90
9998;DHT22;5038;53.064;8.624;2024-02-26T07:56:53;3.50;99.90
9998;DHT22;5038;53.064;8.624;2024-02-26T07:59:22;3.50;99.90
9998;DHT22;5038;53.064;8.624;2024-02-26T08:01:51;3.50;99.90
9998;DHT22;5038;53.064;8.624;2024-02-26T08:04:26;3.60;99.90
9998;DHT22;5038;53.064;8.624;2024-02-26T08:06:54;3.50;99.90
9998;DHT22;5038;53.064;8.624;2024-02-26T08:09:23;3.60;99.90
9998;DHT22;5038;53.064;8.624;2024-02-26T08:11:51;3.60;99.90
9998;DHT22;5038;53.064;8.624;2024-02-26T08:14:20;3.60;99.90
9998;DHT22;5038;53.064;8.624;2024-02-26T08:16:50;3.60;99.90
9998;DHT22;5038;53.064;8.624;2024-02-26T08:19:19;3.70;99.90
9998;DHT22;5038;53.064;8.624;2024-02-26T08:21:49;3.70;99.90
9998;DHT22;5038;53.064;8.624;2024-02-26T08:24:18;3.70;99.90
9998;DHT22;5038;53.064;8.624;2024-02-26T08:26:46;3.70;99.90
9998;DHT22;5038;53.064;8.624;2024-02-26T08:29:14;3.70;99.90
9998;DHT22;5038;53.064;8.624;2024-02-26T08:31:45;3.70;99.90
9998;DHT22;5038;53.064;8.624;2024-02-26T08:34:17;3.80;99.90
9998;DHT22;5038;53.064;8.624;2024-02-26T08:36:45;3.80;99.90
9998;DHT22;5038;53.064;8.624;2024-02-26T08:39:17;3.80;99.90
9998;DHT22;5038;53.064;8.624;2024-02-26T08:41:46;3.80;99.90
9998;DHT22;5038;53.064;8.624;2024-02-26T08:44:17;3.90;99.90
9998;DHT22;5038;53.064;8.624;2024-02-26T08:46:48;3.90;99.90
9998;DHT22;5038;53.064;8.624;2024-02-26T08:49:20;3.90;99.90
9998;DHT22;5038;53.064;8.624;2024-02-26T08:51:50;3.90;99.90
9998;DHT22;5038;53.064;8.624;2024-02-26T08:54:20;3.90;99.90
9998;DHT22;5038;53.064;8.624;2024-02-26T08:56:48;4.00;99.90
9998;DHT22;5038;53.064;8.624;2024-02-26T08:59:17;4.00;99.90
9998;DHT22;5038;53.064;8.624;2024-02-26T09:01:49;4.00;99.90
9998;DHT22;5038;53.064;8.624;2024-02-26T09:04:18;4.00;99.90
9998;DHT22;5038;53.064;8.624;2024-02-26T09:06:46;4.00;99.90
9998;DHT22;5038;53.064;8.624;2024-02-26T09:09:16;4.10;99.90
9998;DHT22;5038;53.064;8.624;2024-02-26T09:11:45;4.10;99.90
9998;DHT22;5038;53.064;8.624;2024-02-26T09:14:14;4.10;99.90
9998;DHT22;5038;53.064;8.624;2024-02-26T09:16:42;4.10;99.90
9998;DHT22;5038;53.064;8.624;2024-02-26T09:19:11;4.10;99.90
9998;DHT22;5038;53.064;8.624;2024-02-26T09:21:42;4.20;99.90
9998;DHT22;5038;53.064;8.624;2024-02-26T09:24:11;4.20;99.90
9998;DHT22;5038;53.064;8.624;2024-02-26T09:26:40;4.20;99.90
9998;DHT22;5038;53.064;8.624;2024-02-26T09:29:18;4.20;99.90
9998;DHT22;5038;53.064;8.624;2024-02-26T09:31:47;4.30;99.90
9998;DHT22;5038;53.064;8.624;2024-02-26T09:34:15;4.30;99.90
9998;DHT22;5038;53.064;8.624;2024-02-26T09:36:52;4.40;99.90
9998;DHT22;5038;53.064;8.624;2024-02-26T09:39:28;4.40;99.90
9998;DHT22;5038;53.064;8.624;2024-02-26T09:41:57;4.50;99.90
9998;DHT22;5038;53.064;8.624;2024-02-26T09:44:29;4.50;99.90
9998;DHT22;5038;53.064;8.624;2024-02-26T09:47:06;4.50;99.90
9998;DHT22;5038;53.064;8.624;2024-02-26T09:49:36;4.60;99.90
9998;DHT22;5038;53.064;8.624;2024-02-26T09:52:05;4.60;99.90
9998;DHT22;5038;53.064;8.624;2024-02-26T09:54:34;4.60;99.90
9998;DHT22;5038;53.064;8.624;2024-02-26T09:57:04;4.70;99.90
9998;DHT22;5038;53.064;8.624;2024-02-26T09:59:39;4.80;99.90
9998;DHT22;5038;53.064;8.624;2024-02-26T10:02:12;4.80;99.90
9998;DHT22;5038;53.064;8.624;2024-02-26T10:04:43;4.80;99.90
9998;DHT22;5038;53.064;8.624;2024-02-26T10:07:17;4.90;99.90
9998;DHT22;5038;53.064;8.624;2024-02-26T10:09:46;4.90;99.90
9998;DHT22;5038;53.064;8.624;2024-02-26T10:12:15;5.00;99.90
9998;DHT22;5038;53.064;8.624;2024-02-26T10:14:48;5.10;99.90
9998;DHT22;5038;53.064;8.624;2024-02-26T10:17:20;5.10;99.90
9998;DHT22;5038;53.064;8.624;2024-02-26T10:19:50;5.20;99.90
9998;DHT22;5038;53.064;8.624;2024-02-26T10:22:23;5.20;99.90
9998;DHT22;5038;53.064;8.624;2024-02-26T10:24:54;5.30;99.90
9998;DHT22;5038;53.064;8.624;2024-02-26T10:27:22;5.30;99.90
9998;DHT22;5038;53.064;8.624;2024-02-26T10:29:56;5.40;99.90
9998;DHT22;5038;53.064;8.624;2024-02-26T10:32:25;5.50;99.90
9998;DHT22;5038;53.064;8.624;2024-02-26T10:34:55;5.50;99.90
9998;DHT22;5038;53.064;8.624;2024-02-26T10:37:24;5.60;99.90
9998;DHT22;5038;53.064;8.624;2024-02-26T10:39:58;5.60;99.90
9998;DHT22;5038;53.064;8.624;2024-02-26T10:42:27;5.70;99.90
9998;DHT22;5038;53.064;8.624;2024-02-26T10:45:00;5.70;99.90
9998;DHT22;5038;53.064;8.624;2024-02-26T10:47:32;5.80;99.90
9998;DHT22;5038;53.064;8.624;2024-02-26T10:50:02;5.80;99.90
9998;DHT22;5038;53.064;8.624;2024-02-26T10:52:32;5.90;99.90
9998;DHT22;5038;53.064;8.624;2024-02-26T10:55:03;5.90;99.90
9998;DHT22;5038;53.064;8.624;2024-02-26T10:57:34;5.90;99.90
9998;DHT22;5038;53.064;8.624;2024-02-26T11:00:11;5.90;99.90
9998;DHT22;5038;53.064;8.624;2024-02-26T11:02:44;6.00;99.90
9998;DHT22;5038;53.064;8.624;2024-02-26T11:05:13;6.00;99.90
9998;DHT22;5038;53.064;8.624;2024-02-26T11:07:46;6.00;99.90
9998;DHT22;5038;53.064;8.624;2024-02-26T11:10:18;6.10;99.90
9998;DHT22;5038;53.064;8.624;2024-02-26T11:12:48;6.10;99.90
9998;DHT22;5038;53.064;8.624;2024-02-26T11:15:19;6.10;99.90
9998;DHT22;5038;53.064;8.624;2024-02-26T11:17:51;6.20;99.90
9998;DHT22;5038;53.064;8.624;2024-02-26T11:20:26;6.20;99.90
9998;DHT22;5038;53.064;8.624;2024-02-26T11:22:56;6.20;99.90
9998;DHT22;5038;53.064;8.624;2024-02-26T11:25:25;6.20;99.90
9998;DHT22;5038;53.064;8.624;2024-02-26T11:27:56;6.30;99.90
9998;DHT22;5038;53.064;8.624;2024-02-26T11:30:34;6.30;99.90
9998;DHT22;5038;53.064;8.624;2024-02-26T11:33:06;6.40;99.90
9998;DHT22;5038;53.064;8.624;2024-02-26T11:35:39;6.40;99.90
9998;DHT22;5038;53.064;8.624;2024-02-26T11:38:08;6.40;99.90
9998;DHT22;5038;53.064;8.624;2024-02-26T11:40:38;6.50;99.90
9998;DHT22;5038;53.064;8.624;2024-02-26T11:43:08;6.50;99.90
9998;DHT22;5038;53.064;8.624;2024-02-26T11:45:51;6.50;99.90
9998;DHT22;5038;53.064;8.624;2024-02-26T11:48:28;6.60;99.90
9998;DHT22;5038;53.064;8.624;2024-02-26T11:50:58;6.60;99.90
9998;DHT22;5038;53.064;8.624;2024-02-26T11:53:27;6.60;99.90
9998;DHT22;5038;53.064;8.624;2024-02-26T11:56:15;6.70;99.90
9998;DHT22;5038;53.064;8.624;2024-02-26T11:58:48;6.70;99.90
9998;DHT22;5038;53.064;8.624;2024-02-26T12:01:38;6.80;99.90
9998;DHT22;5038;53.064;8.624;2024-02-26T12:04:08;6.80;99.90
9998;DHT22;5038;53.064;8.624;2024-02-26T12:06:46;6.80;99.90
9998;DHT22;5038;53.064;8.624;2024-02-26T12:09:39;6.90;99.90
9998;DHT22;5038;53.064;8.624;2024-02-26T12:12:10;6.90;99.90
9998;DHT22;5038;53.064;8.624;2024-02-26T12:14:55;6.90;99.90
9998;DHT22;5038;53.064;8.624;2024-02-26T12:17:26;7.00;99.90
9998;DHT22;5038;53.064;8.624;2024-02-26T12:19:54;7.20;99.90
9998;DHT22;5038;53.064;8.624;2024-02-26T12:22:23;7.00;99.90
9998;DHT22;5038;53.064;8.624;2024-02-26T12:24:58;7.10;99.90
9998;DHT22;5038;53.064;8.624;2024-02-26T12:27:28;7.10;99.90
9998;DHT22;5038;53.064;8.624;2024-02-26T12:29:57;7.10;99.90
9998;DHT22;5038;53.064;8.624;2024-02-26T12:32:26;7.10;99.90
9998;DHT22;5038;53.064;8.624;2024-02-26T12:34:55;7.20;99.90
9998;DHT22;5038;53.064;8.624;2024-02-26T12:37:30;7.20;99.90
9998;DHT22;5038;53.064;8.624;2024-02-26T12:40:00;7.30;99.90
9998;DHT22;5038;53.064;8.624;2024-02-26T12:42:29;7.30;99.90
9998;DHT22;5038;53.064;8.624;2024-02-26T12:44:59;7.40;99.90
9998;DHT22;5038;53.064;8.624;2024-02-26T12:47:32;7.50;99.90
9998;DHT22;5038;53.064;8.624;2024-02-26T12:50:02;7.50;99.90
9998;DHT22;5038;53.064;8.624;2024-02-26T12:52:36;7.60;99.90
9998;DHT22;5038;53.064;8.624;2024-02-26T12:55:06;7.60;99.90
9998;DHT22;5038;53.064;8.624;2024-02-26T12:57:38;7.60;99.90
9998;DHT22;5038;53.064;8.624;2024-02-26T13:00:16;7.70;99.90
9998;DHT22;5038;53.064;8.624;2024-02-26T13:02:49;7.70;99.90
9998;DHT22;5038;53.064;8.624;2024-02-26T13:05:19;7.70;99.90
9998;DHT22;5038;53.064;8.624;2024-02-26T13:07:49;7.70;99.90
9998;DHT22;5038;53.064;8.624;2024-02-26T13:10:20;7.70;99.90
9998;DHT22;5038;53.064;8.624;2024-02-26T13:12:49;7.80;99.90
9998;DHT22;5038;53.064;8.624;2024-02-26T13:15:20;7.70;99.90
9998;DHT22;5038;53.064;8.624;2024-02-26T13:17:50;7.70;99.90
9998;DHT22;5038;53.064;8.624;2024-02-26T13:20:30;7.80;99.90
9998;DHT22;5038;53.064;8.624;2024-02-26T13:23:02;7.80;99.90
9998;DHT22;5038;53.064;8.624;2024-02-26T13:25:35;7.80;99.90
9998;DHT22;5038;53.064;8.624;2024-02-26T13:28:14;7.80;99.90
9998;DHT22;5038;53.064;8.624;2024-02-26T13:30:50;7.80;99.90
9998;DHT22;5038;53.064;8.624;2024-02-26T13:33:28;7.80;99.90
9998;DHT22;5038;53.064;8.624;2024-02-26T13:36:00;7.90;99.90
9998;DHT22;5038;53.064;8.624;2024-02-26T13:38:30;7.90;99.90
9998;DHT22;5038;53.064;8.624;2024-02-26T13:40:59;7.90;99.90
9998;DHT22;5038;53.064;8.624;2024-02-26T13:43:30;7.90;99.90
9998;DHT22;5038;53.064;8.624;2024-02-26T13:45:58;7.90;99.90
9998;DHT22;5038;53.064;8.624;2024-02-26T13:48:28;8.00;99.90
9998;DHT22;5038;53.064;8.624;2024-02-26T13:50:58;8.00;99.90
9998;DHT22;5038;53.064;8.624;2024-02-26T13:53:26;8.00;99.90
9998;DHT22;5038;53.064;8.624;2024-02-26T13:56:01;8.00;99.90
9998;DHT22;5038;53.064;8.624;2024-02-26T13:58:32;8.00;99.90
9998;DHT22;5038;53.064;8.624;2024-02-26T14:01:01;8.10;99.90
9998;DHT22;5038;53.064;8.624;2024-02-26T14:03:38;8.10;99.90
9998;DHT22;5038;53.064;8.624;2024-02-26T14:06:07;8.10;99.90
9998;DHT22;5038;53.064;8.624;2024-02-26T14:08:37;8.10;99.90
9998;DHT22;5038;53.064;8.624;2024-02-26T14:11:06;8.10;99.90
9998;DHT22;5038;53.064;8.624;2024-02-26T14:13:34;8.10;99.90
9998;DHT22;5038;53.064;8.624;2024-02-26T14:16:09;8.10;99.90
9998;DHT22;5038;53.064;8.624;2024-02-26T14:18:43;8.20;99.90
9998;DHT22;5038;53.064;8.624;2024-02-26T14:21:12;8.20;99.90
9998;DHT22;5038;53.064;8.624;2024-02-26T14:23:41;8.20;99.90
9998;DHT22;5038;53.064;8.624;2024-02-26T14:26:11;8.20;99.90
9998;DHT22;5038;53.064;8.624;2024-02-26T14:28:40;8.20;99.90
9998;DHT22;5038;53.064;8.624;2024-02-26T14:31:08;8.10;99.90
9998;DHT22;5038;53.064;8.624;2024-02-26T14:33:38;8.10;99.90
9998;DHT22;5038;53.064;8.624;2024-02-26T14:36:09;8.10;99.90
9998;DHT22;5038;53.064;8.624;2024-02-26T14:38:38;8.10;99.90
9998;DHT22;5038;53.064;8.624;2024-02-26T14:41:06;8.10;99.90
9998;DHT22;5038;53.064;8.624;2024-02-26T14:43:35;8.10;99.90
9998;DHT22;5038;53.064;8.624;2024-02-26T14:46:04;8.10;99.90
9998;DHT22;5038;53.064;8.624;2024-02-26T14:48:32;8.00;99.90
9998;DHT22;5038;53.064;8.624;2024-02-26T14:51:01;8.00;99.90
9998;DHT22;5038;53.064;8.624;2024-02-26T14:53:31;8.00;99.90
9998;DHT22;5038;53.064;8.624;2024-02-26T14:56:00;8.00;99.90
9998;DHT22;5038;53.064;8.624;2024-02-26T14:58:29;8.00;99.90
9998;DHT22;5038;53.064;8.624;2024-02-26T15:00:57;8.00;99.90
9998;DHT22;5038;53.064;8.624;2024-02-26T15:03:25;8.00;99.90
9998;DHT22;5038;53.064;8.624;2024-02-26T15:05:54;8.00;99.90
9998;DHT22;5038;53.064;8.624;2024-02-26T15:08:22;8.00;99.90
9998;DHT22;5038;53.064;8.624;2024-02-26T15:10:52;8.00;99.90
9998;DHT22;5038;53.064;8.624;2024-02-26T15:13:21;8.00;99.90
9998;DHT22;5038;53.064;8.624;2024-02-26T15:15:49;8.00;99.90
9998;DHT22;5038;53.064;8.624;2024-02-26T15:18:18;8.00;99.90
9998;DHT22;5038;53.064;8.624;2024-02-26T15:20:46;7.90;99.90
9998;DHT22;5038;53.064;8.624;2024-02-26T15:23:15;7.90;99.90
9998;DHT22;5038;53.064;8.624;2024-02-26T15:25:45;7.90;99.90
9998;DHT22;5038;53.064;8.624;2024-02-26T15:28:14;7.80;99.90
9998;DHT22;5038;53.064;8.624;2024-02-26T15:30:43;7.80;99.90
9998;DHT22;5038;53.064;8.624;2024-02-26T15:33:12;7.80;99.90
9998;DHT22;5038;53.064;8.624;2024-02-26T15:35:40;7.80;99.90
9998;DHT22;5038;53.064;8.624;2024-02-26T15:38:12;7.70;99.90
9998;DHT22;5038;53.064;8.624;2024-02-26T15:40:41;7.70;99.90
9998;DHT22;5038;53.064;8.624;2024-02-26T15:43:11;7.70;99.90
9998;DHT22;5038;53.064;8.624;2024-02-26T15:45:43;7.70;99.90
9998;DHT22;5038;53.064;8.624;2024-02-26T15:48:11;7.70;99.90
9998;DHT22;5038;53.064;8.624;2024-02-26T15:50:40;7.70;99.90
9998;DHT22;5038;53.064;8.624;2024-02-26T15:53:09;7.60;99.90
9998;DHT22;5038;53.064;8.624;2024-02-26T15:55:37;7.60;99.90
9998;DHT22;5038;53.064;8.624;2024-02-26T15:58:08;7.60;99.90
9998;DHT22;5038;53.064;8.624;2024-02-26T16:00:42;7.60;99.90
9998;DHT22;5038;53.064;8.624;2024-02-26T16:03:11;7.60;99.90
9998;DHT22;5038;53.064;8.624;2024-02-26T16:05:40;7.60;99.90
9998;DHT22;5038;53.064;8.624;2024-02-26T16:08:20;7.50;99.90
9998;DHT22;5038;53.064;8.624;2024-02-26T16:10:48;7.50;99.90
9998;DHT22;5038;53.064;8.624;2024-02-26T16:13:17;7.50;99.90
9998;DHT22;5038;53.064;8.624;2024-02-26T16:16:01;7.50;99.90
9998;DHT22;5038;53.064;8.624;2024-02-26T16:18:31;7.50;99.90
9998;DHT22;5038;53.064;8.624;2024-02-26T16:20:59;7.40;99.90
9998;DHT22;5038;53.064;8.624;2024-02-26T16:23:28;7.40;99.90
9998;DHT22;5038;53.064;8.624;2024-02-26T16:25:56;7.40;99.90
9998;DHT22;5038;53.064;8.624;2024-02-26T16:28:25;7.40;99.90
9998;DHT22;5038;53.064;8.624;2024-02-26T16:30:55;7.30;99.90
9998;DHT22;5038;53.064;8.624;2024-02-26T16:33:23;7.30;99.90